This is the latest recevied weather packets stored in our database for station/object KK7KHO. If no packets are shown the sender has not sent any weather packets the latest 10 day(s).
| Time | Temp. | Humidity | Pressure | Rain* | Wind** | Luminosity | Snow |
|---|---|---|---|---|---|---|---|
| 1777652586 | 14.44° C | 86% | 1016.9 hPa | 0 mm | - | 337 W/m² | - |
| 1777652283 | 13.89° C | 86% | 1016.8 hPa | 0 mm | - | 335 W/m² | - |
| 1777651980 | 13.89° C | 86% | 1016.9 hPa | 0 mm | - | 311 W/m² | - |
| 1777651676 | 13.89° C | 87% | 1016.9 hPa | 0 mm | - | 311 W/m² | - |
| 1777651373 | 13.89° C | 88% | 1017.1 hPa | 0 mm | - | 300 W/m² | - |
| 1777651070 | 13.89° C | 86% | 1017 hPa | 0 mm | - | 185 W/m² | - |
| 1777650766 | 13.89° C | 87% | 1016.9 hPa | 0 mm | - | 290 W/m² | - |
| 1777650458 | 13.33° C | 89% | 1017 hPa | 0 mm | - | 279 W/m² | - |
| 1777650154 | 13.33° C | 88% | 1017 hPa | 0 mm | - | 224 W/m² | - |
| 1777649852 | 13.33° C | 89% | 1016.9 hPa | 0 mm | - | 218 W/m² | - |
| 1777649549 | 12.78° C | 88% | 1017 hPa | 0 mm | - | 224 W/m² | - |
| 1777649240 | 12.78° C | 87% | 1016.8 hPa | 0 mm | - | 215 W/m² | - |
| 1777648937 | 12.78° C | 87% | 1017 hPa | 0 mm | - | 191 W/m² | - |
| 1777648634 | 12.78° C | 89% | 1016.9 hPa | 0 mm | - | 182 W/m² | - |
| 1777648331 | 12.78° C | 88% | 1016.9 hPa | 0 mm | - | 163 W/m² | - |
| 1777648027 | 12.78° C | 87% | 1016.8 hPa | 0 mm | - | 159 W/m² | - |
| 1777647723 | 12.78° C | 86% | 1016.9 hPa | 0 mm | - | 137 W/m² | - |
| 1777647419 | 12.22° C | 89% | 1016.8 hPa | 0 mm | - | 143 W/m² | - |
| 1777647117 | 11.67° C | 90% | 1016.8 hPa | 0 mm | - | 141 W/m² | - |
| 1777646813 | 11.67° C | 90% | 1016.8 hPa | 0 mm | - | 115 W/m² | - |
| 1777646509 | 11.67° C | 89% | 1016.7 hPa | 0 mm | - | 104 W/m² | - |
| 1777646205 | 11.67° C | 89% | 1016.7 hPa | 0 mm | - | 99 W/m² | - |
| 1777645903 | 12.22° C | 86% | 1016.7 hPa | 0 mm | - | 86 W/m² | - |
| 1777645600 | 12.22° C | 86% | 1016.5 hPa | 0 mm | - | 89 W/m² | - |
| 1777645295 | 11.67° C | 89% | 1016.5 hPa | 0 mm | - | 87 W/m² | - |
* Rain latest hour (hover to see other rain measurements)
** Current wind speed in m/s (hover to see current wind gust speed)